Latest Weather Observations for Gingin Airport

IDW60801

Issued at 10:04 pm WST Sunday 22 January 2017 (issued every 30 minutes, with the page automatically refreshed every 10 minutes)

About weather observations | Map of weather stations | Latest weather observations for WA | Other Formats
Station Details ID: 009178 Name: GINGIN AERO Lat: -31.46 Lon: 115.86 Height: 73.0 m
Data from the previous 72 hours. | See also: Recent months at Gingin Airport
Date/Time
WST
Temp
°C
App
Temp
°C
Dew
Point
°C
Rel
Hum
%
Delta-T
°C
Wind Press
QNH
hPa
Press
MSL
hPa
Rain since
9am
mm
Dir  Spd
km/h
Gust
km/h
Spd
kts
Gust
kts
22/09:30pm 17.9 14.6 11.7 67 3.4 SSW 20 28 11 15 1014.0 1013.7 0.0
22/09:00pm 18.1 14.8 11.7 66 3.5 SSW 20 26 11 14 1013.7 1013.4 0.0
22/08:30pm 18.2 14.9 11.5 65 3.7 SSW 20 26 11 14 1013.4 1013.1 0.0
22/08:00pm 18.4 14.2 11.0 62 4.0 SSW 24 35 13 19 1013.1 1012.8 0.0
22/07:30pm 18.9 14.2 11.9 64 3.9 SSW 28 39 15 21 1012.9 1012.6 0.0
22/07:00pm 19.4 14.5 12.4 64 3.9 SW 30 39 16 21 1012.5 1012.2 0.0
22/06:30pm 20.2 14.9 11.4 57 4.9 SW 30 41 16 22 1012.2 1011.8 0.0
22/06:00pm 20.5 13.9 11.4 56 5.0 SW 37 46 20 25 1011.7 1011.3 0.0
22/05:30pm 21.0 15.2 11.6 55 5.2 SSW 33 46 18 25 1011.3 1010.9 0.0
22/05:21pm 21.8 16.5 12.4 55 5.3 SSW 32 50 17 27 1011.2 1010.8 0.0
22/05:00pm 22.0 16.1 12.3 54 5.5 SW 35 46 19 25 1011.0 1010.6 0.0
22/04:30pm 22.3 16.8 11.7 51 6.0 SW 32 43 17 23 1010.9 1010.5 0.0
22/04:00pm 22.7 16.4 11.1 48 6.5 SW 35 44 19 24 1010.8 1010.4 0.0
22/03:30pm 23.5 17.6 10.6 44 7.2 SSW 32 41 17 22 1010.9 1010.5 0.0
22/03:00pm 23.4 17.2 10.1 43 7.3 SSW 33 44 18 24 1011.1 1010.7 0.0
22/02:30pm 23.6 17.7 11.3 46 6.9 SSW 33 46 18 25 1011.3 1010.9 0.0
22/02:00pm 23.8 18.2 12.1 48 6.7 SW 33 46 18 25 1011.2 1010.8 0.0
22/01:30pm 23.1 17.8 12.4 51 6.1 SSW 32 43 17 23 1011.2 1010.8 0.0
22/01:18pm 24.4 19.3 13.0 49 6.6 SW 32 50 17 27 1011.1 1010.7 0.0
22/01:00pm 23.8 18.9 12.4 48 6.5 SSW 30 43 16 23 1011.0 1010.6 0.0
22/12:30pm 24.5 19.2 13.1 49 6.6 SSW 33 44 18 24 1011.0 1010.6 0.0
22/12:00pm 24.1 19.2 13.6 52 6.2 SSW 32 44 17 24 1011.0 1010.6 0.0
22/11:30am 24.1 19.3 13.9 53 6.0 SSW 32 43 17 23 1010.8 1010.4 0.0
22/11:00am 23.9 18.9 13.4 51 6.1 SW 32 43 17 23 1010.6 1010.2 0.0
22/10:30am 23.8 19.0 13.9 54 5.8 SW 32 41 17 22 1010.6 1010.2 0.0
22/10:00am 23.4 19.2 13.6 54 5.7 S 28 39 15 21 1010.5 1010.1 0.0
22/09:30am 23.0 18.5 13.8 56 5.4 SSW 30 41 16 22 1010.4 1010.0 0.0
22/09:00am 22.2 18.2 14.1 60 4.7 SSW 28 35 15 19 1010.4 1010.0 0.0
22/08:30am 20.8 15.8 13.5 63 4.2 SSW 32 39 17 21 1010.5 1010.1 0.0
22/08:00am 20.0 14.9 13.0 64 4.0 SSW 32 41 17 22 1010.5 1010.1 0.0
22/07:30am 19.4 15.8 13.1 67 3.6 S 24 37 13 20 1010.3 1009.9 0.0
22/07:00am 18.4 15.5 13.9 75 2.6 SSW 22 32 12 17 1010.1 1009.7 0.0
22/06:30am 16.9 15.8 14.4 85 1.4 S 13 19 7 10 1009.6 1009.2 0.0
22/06:00am 16.1 15.5 14.5 90 0.9 S 11 13 6 7 1009.3 1008.9 0.0
22/05:30am 16.5 15.9 14.7 89 1.0 S 11 15 6 8 1008.9 1008.5 0.0
22/05:00am 17.1 16.7 15.3 89 1.1 SSW 11 15 6 8 1008.7 1008.3 0.0
22/04:30am 17.5 17.2 15.5 88 1.2 SSW 11 15 6 8 1008.6 1008.2 0.0
22/04:00am 18.1 16.4 15.7 86 1.4 SSW 19 24 10 13 1008.4 1008.0 0.0
22/03:30am 18.4 17.2 16.0 86 1.4 SSW 17 24 9 13 1008.4 1008.0 0.0
22/03:00am 18.2 17.0 16.0 87 1.3 SSW 17 22 9 12 1008.1 1007.7 0.0
22/02:30am 18.2 17.4 16.2 88 1.2 SSW 15 19 8 10 1008.0 1007.6 0.0
22/02:00am 18.4 17.7 16.4 88 1.2 SSW 15 20 8 11 1008.0 1007.6 0.0
22/01:30am 18.4 18.1 16.4 88 1.2 SSW 13 17 7 9 1008.1 1007.7 0.0
22/01:00am 18.5 18.1 16.3 87 1.3 SSW 13 20 7 11 1008.2 1007.8 0.0
22/12:30am 18.5 18.1 16.1 86 1.4 SSW 13 17 7 9 1008.3 1007.9 0.0
22/12:00am 18.6 18.1 15.8 84 1.7 SSW 13 17 7 9 1008.6 1008.2 0.0
 
Date/Time
WST
Temp
°C
App
Temp
°C
Dew
Point
°C
Rel
Hum
%
Delta-T
°C
Wind Press
QNH
hPa
Press
MSL
hPa
Rain since
9am
mm
Dir  Spd
km/h
Gust
km/h
Spd
kts
Gust
kts
21/11:30pm 18.9 17.3 16.1 84 1.7 SSW 19 24 10 13 1008.8 1008.4 0.0
21/11:00pm 19.0 17.8 16.0 83 1.8 SSW 17 20 9 11 1008.8 1008.4 0.0
21/10:30pm 19.1 18.3 16.1 83 1.8 SW 15 19 8 10 1008.7 1008.3 0.0
21/10:00pm 19.3 18.5 16.2 82 1.9 SW 15 19 8 10 1008.8 1008.4 0.0
21/09:30pm 19.6 18.9 16.3 81 2.0 SSW 15 20 8 11 1008.6 1008.2 0.0
21/09:00pm 19.8 18.3 16.3 80 2.1 SW 19 30 10 16 1008.4 1008.0 0.0
21/08:30pm 20.1 18.3 16.1 78 2.4 SSW 20 28 11 15 1008.2 1007.8 0.0
21/08:00pm 20.5 18.6 15.7 74 2.9 SW 20 30 11 16 1008.0 1007.6 0.0
21/07:30pm 21.1 19.1 15.4 70 3.4 SW 20 28 11 15 1007.8 1007.4 0.0
21/07:00pm 22.6 20.3 14.7 61 4.7 SW 20 28 11 15 1007.5 1007.1 0.0
21/06:30pm 24.2 20.5 12.8 49 6.6 SW 24 32 13 17 1007.1 1006.7 0.0
21/06:00pm 25.0 19.4 11.6 43 7.6 SW 32 44 17 24 1006.7 1006.3 0.0
21/05:30pm 26.1 21.4 14.2 48 7.1 SW 32 43 17 23 1006.3 1005.9 0.0
21/05:00pm 26.9 22.4 15.0 48 7.2 SSW 32 39 17 21 1006.0 1005.6 0.0
21/04:30pm 27.5 23.4 14.8 45 7.7 SSW 30 39 16 21 1005.7 1005.3 0.0
21/04:00pm 28.6 23.4 13.3 39 9.1 SSW 33 41 18 22 1005.5 1005.1 0.0
21/03:30pm 31.0 26.1 12.4 32 11.0 SSW 30 39 16 21 1005.4 1005.0 0.0
21/03:00pm 32.1 26.6 11.8 29 12.0 SSW 32 39 17 21 1005.3 1004.9 0.0
21/02:30pm 32.0 26.8 12.8 31 11.5 SW 32 43 17 23 1005.4 1005.0 0.0
21/02:00pm 32.6 27.7 11.2 27 12.5 SW 28 35 15 19 1005.5 1005.1 0.0
21/01:30pm 33.2 28.8 10.5 25 13.2 SW 24 32 13 17 1005.7 1005.3 0.0
21/01:00pm 33.3 29.9 11.2 26 13.0 SW 20 33 11 18 1005.9 1005.5 0.0
21/12:30pm 33.3 30.6 12.9 29 12.3 SSW 19 30 10 16 1006.3 1005.9 0.0
21/12:00pm 33.6 31.4 10.9 25 13.3 S 13 30 7 16 1006.5 1006.1 0.0
21/11:30am 32.1 29.4 10.2 26 12.6 SSW 15 24 8 13 1006.9 1006.5 0.0
21/11:00am 31.2 28.7 11.1 29 11.7 SSW 15 22 8 12 1007.4 1007.0 0.0
21/10:30am 30.0 27.6 11.5 32 10.7 S 15 20 8 11 1007.7 1007.3 0.0
21/10:00am 28.0 26.0 11.5 35 9.5 SSE 13 19 7 10 1008.0 1007.6 0.0
21/09:30am 26.3 24.1 12.0 41 8.2 S 15 19 8 10 1008.4 1008.0 0.0
21/09:00am 25.4 24.0 12.3 44 7.6 S 11 17 6 9 1008.6 1008.2 0.0
21/08:30am 23.3 21.6 12.3 50 6.3 SSE 13 17 7 9 1009.0 1008.6 0.0
21/08:00am 21.1 19.5 12.8 59 4.7 SSE 13 19 7 10 1009.2 1008.8 0.0
21/07:30am 19.0 17.7 13.8 72 3.0 S 13 19 7 10 1009.3 1008.9 0.0
21/07:00am 16.3 16.2 15.0 92 0.8 S 9 13 5 7 1009.1 1008.7 0.0
21/06:30am 14.1 14.8 13.5 96 0.3 SSW 2 6 1 3 1008.9 1008.5 0.0
21/06:00am 12.1 10.1 11.5 96 0.3 WSW 13 19 7 10 1008.7 1008.3 0.0
21/05:30am 11.6 10.7 10.8 95 0.4 ESE 6 7 3 4 1008.5 1008.1 0.0
21/05:00am 11.9 10.9 11.0 94 0.5 ESE 7 9 4 5 1008.4 1008.0 0.0
21/04:30am 11.6 10.7 10.5 93 0.6 ESE 6 7 3 4 1008.4 1008.0 0.0
21/04:00am 11.8 12.0 10.7 93 0.6 CALM 0 0 0 0 1008.3 1007.9 0.0
21/03:30am 12.4 11.7 11.3 93 0.6 ESE 6 7 3 4 1008.4 1008.0 0.0
21/03:00am 13.1 13.7 12.0 93 0.6 CALM 0 2 0 1 1008.4 1008.0 0.0
21/02:30am 13.8 13.4 12.5 92 0.7 ESE 6 7 3 4 1008.4 1008.0 0.0
21/02:00am 14.8 14.3 13.7 93 0.6 ESE 9 9 5 5 1008.7 1008.3 0.0
21/01:30am 15.7 15.9 14.6 93 0.6 S 7 9 4 5 1008.9 1008.5 0.0
21/01:00am 16.1 16.5 14.8 92 0.8 S 6 9 3 5 1009.3 1008.9 0.0
21/12:30am 16.5 16.8 15.0 91 0.9 SSW 7 9 4 5 1009.7 1009.3 0.0
21/12:00am 16.7 16.7 15.2 91 0.9 SSW 9 11 5 6 1009.8 1009.4 0.0
 
Date/Time
WST
Temp
°C
App
Temp
°C
Dew
Point
°C
Rel
Hum
%
Delta-T
°C
Wind Press
QNH
hPa
Press
MSL
hPa
Rain since
9am
mm
Dir  Spd
km/h
Gust
km/h
Spd
kts
Gust
kts
20/11:30pm 16.9 16.5 15.1 89 1.0 SSW 11 11 6 6 1010.0 1009.6 0.0
20/11:00pm 17.5 17.1 15.3 87 1.3 SSW 11 11 6 6 1010.4 1010.0 0.0
20/10:30pm 17.8 17.9 15.4 86 1.4 SSW 9 11 5 6 1010.7 1010.3 0.0
20/10:00pm 17.9 18.3 15.2 84 1.6 S 7 9 4 5 1010.7 1010.3 0.0
20/09:30pm 18.4 18.0 15.3 82 1.8 SSW 11 15 6 8 1010.6 1010.2 0.0
20/09:00pm 18.8 18.1 15.3 80 2.1 SSW 13 17 7 9 1010.5 1010.1 0.0
20/08:30pm 19.2 17.7 15.3 78 2.3 SSW 17 20 9 11 1010.4 1010.0 0.0
20/08:00pm 19.6 17.9 14.6 73 2.9 SSW 17 20 9 11 1010.2 1009.8 0.0
20/07:30pm 20.3 17.9 14.4 69 3.4 SSW 20 26 11 14 1009.8 1009.4 0.0
20/07:00pm 21.5 18.4 13.4 60 4.7 SSW 22 30 12 16 1009.6 1009.2 0.0
20/06:30pm 22.2 18.5 12.7 55 5.4 SSW 24 33 13 18 1009.4 1009.0 0.0
20/06:00pm 23.6 20.4 13.2 52 6.0 SSW 22 32 12 17 1008.9 1008.5 0.0
20/05:30pm 25.1 21.3 12.3 45 7.4 SSW 24 30 13 16 1008.7 1008.3 0.0
20/05:00pm 25.5 21.6 12.0 43 7.8 SW 24 32 13 17 1008.6 1008.2 0.0
20/04:30pm 26.0 22.0 11.7 41 8.2 SW 24 32 13 17 1008.7 1008.3 0.0
20/04:00pm 26.4 21.9 11.3 39 8.6 SW 26 37 14 20 1009.0 1008.6 0.0
20/03:30pm 26.5 21.0 10.6 37 9.0 SW 30 39 16 21 1009.2 1008.8 0.0
20/03:00pm 27.1 22.2 11.2 37 9.1 SSW 28 35 15 19 1009.4 1009.0 0.0
20/02:30pm 27.6 22.7 11.2 36 9.4 SSW 28 39 15 21 1009.4 1009.0 0.0
20/02:00pm 27.7 22.4 11.3 36 9.4 SSW 30 37 16 20 1009.7 1009.3 0.0
20/01:30pm 27.9 22.8 10.6 34 9.8 SW 28 37 15 20 1010.0 1009.6 0.0
20/01:19pm 28.4 23.3 10.6 33 10.1 SSW 28 39 15 21 1010.1 1009.7 0.0
20/01:00pm 28.8 26.5 7.4 26 11.6 ESE 9 19 5 10 1010.3 1009.9 0.0
20/12:30pm 27.5 25.2 7.4 28 10.8 E 9 19 5 10 1010.7 1010.3 0.0
20/12:00pm 26.7 23.6 7.2 29 10.4 SSE 13 24 7 13 1011.2 1010.8 0.0
20/11:30am 26.2 23.1 7.3 30 10.0 SSE 13 20 7 11 1011.6 1011.2 0.0
20/11:00am 26.1 23.9 7.7 31 9.8 ESE 9 24 5 13 1012.0 1011.6 0.0
20/10:30am 25.0 21.6 7.6 33 9.2 ENE 15 22 8 12 1012.1 1011.7 0.0
20/10:00am 23.9 20.9 7.9 36 8.5 E 13 20 7 11 1012.1 1011.7 0.0
20/09:30am 23.0 19.4 8.3 39 7.8 E 17 28 9 15 1012.1 1011.7 0.0
20/09:00am 22.0 18.0 8.2 41 7.3 E 19 28 10 15 1012.3 1011.9 0.0
20/08:30am 20.7 16.1 8.0 44 6.6 E 22 28 12 15 1012.3 1011.9 0.0
20/08:00am 19.5 15.0 8.5 49 5.7 E 22 28 12 15 1012.4 1012.1 0.0
20/07:30am 18.7 13.9 8.7 52 5.2 E 24 30 13 16 1012.5 1012.2 0.0
20/07:00am 17.7 13.7 9.1 57 4.5 ESE 20 26 11 14 1012.3 1011.9 0.0
20/06:30am 16.6 12.8 9.1 61 3.9 ESE 19 26 10 14 1012.1 1011.7 0.0
20/06:00am 14.2 11.1 8.8 70 2.7 SE 15 19 8 10 1012.1 1011.7 0.0
20/05:30am 12.7 9.9 8.4 75 2.1 SSE 13 15 7 8 1011.9 1011.5 0.0
20/05:00am 12.0 8.9 8.7 80 1.6 SE 15 17 8 9 1011.6 1011.2 0.0
20/04:30am 11.1 9.6 8.3 83 1.4 SE 6 9 3 5 1011.6 1011.2 0.0
20/04:00am 11.4 9.7 8.4 82 1.5 E 7 9 4 5 1011.6 1011.2 0.0
20/03:30am 12.5 9.8 9.1 80 1.7 SSE 13 15 7 8 1011.6 1011.2 0.0
20/03:00am 12.9 11.1 9.4 79 1.8 SE 9 11 5 6 1011.7 1011.3 0.0
20/02:30am 13.6 11.8 9.6 77 2.1 SE 9 11 5 6 1011.8 1011.4 0.0
20/02:00am 14.6 12.9 9.8 73 2.5 S 9 13 5 7 1011.7 1011.3 0.0
20/01:30am 14.8 13.3 10.6 76 2.2 S 9 13 5 7 1011.8 1011.4 0.0
20/01:00am 15.2 14.1 12.0 81 1.7 SSE 9 13 5 7 1012.0 1011.6 0.0
20/12:30am 16.1 14.7 12.3 78 2.1 S 11 13 6 7 1012.1 1011.7 0.0
20/12:00am 16.5 15.7 12.8 79 2.1 SSW 9 11 5 6 1012.1 1011.7 0.0
 
Date/Time
WST
Temp
°C
App
Temp
°C
Dew
Point
°C
Rel
Hum
%
Delta-T
°C
Wind Press
QNH
hPa
Press
MSL
hPa
Rain since
9am
mm
Dir  Spd
km/h
Gust
km/h
Spd
kts
Gust
kts
19/11:30pm 16.9 16.1 13.0 78 2.2 S 9 13 5 7 1012.3 1011.9 0.0
19/11:00pm 17.3 15.8 13.0 76 2.4 SSW 13 17 7 9 1012.4 1012.1 0.0
19/10:30pm 17.6 16.4 12.9 74 2.6 SSW 11 15 6 8 1012.5 1012.2 0.0

Other Formats:

Comma delimited format used in spreadsheet applications
http://www.bom.gov.au/fwo/IDW60801/IDW60801.95612.axf

JavaScript Object Notation format (JSON) in row-major order
http://www.bom.gov.au/fwo/IDW60801/IDW60801.95612.json